Pittsburgh, PA (15236)

1:19 AM EDT on September 28, 2016 (GMT -0400)
Squirrel Hill | | Change Station

Elev 1060 ft 40.44 °N, 79.94 °W | Updated 12 minutes ago

Clear
Clear
61.0 °F
Feels Like 61.0 °F
N
0.6
Wind Variable Wind from NNW

Today
High -- | Low -- °F
--% Chance of Precip.
Yesterday
High -- | Low -- °F
Precip. -- in
Pressure 29.93 in
Visibility 7.0 miles
Clouds Clear
Dew Point 45 °F
Humidity 59%
Rainfall Not available.
Snow Depth Not available.
7:13 AM 7:06 PM
Waning Crescent, 7% visible
METAR KAGC 280453Z 17007KT 7SM CLR 12/08 A2992 RMK AO2 SLP133 T01170083 402220111
Pressure 29.93 in
Visibility 7.0 miles
Clouds Clear
Dew Point 45 °F
Humidity 59%
Rainfall Not available.
Snow Depth Not available.
7:13 AM 7:06 PM
Waning Crescent, 7% visible
METAR KAGC 280453Z 17007KT 7SM CLR 12/08 A2992 RMK AO2 SLP133 T01170083 402220111

10-Day Weather Forecast

Almanac

Astronomy

Sep. 28, 2016 Rise Set
Actual Time
Civil Twilight
Nautical Twilight
Astronomical Twilight
Moon
Length of Visible Light
Length of Day
Tomorrow will be .
, % of the Moon is Illuminated

Today's Extremes

State Highs State Lows

Community

WunderPhotos

Upload Photos

1,942,213 photos uploaded!

WunderBlog® & News

Nearby

Air Quality

  Air Quality AQ Index Pollutant
Not available.

Snow Depth

Station Depth Elevation

Earthquake Activity

City Distance Mag. Time & Date
Minimum magnitude displayed is 2.5.

Coastal Water Temperatures

Place Temperature

Stations

Nearby Weather Stations

Station Location Temp. Windchill Dew Point Humidity Wind Precip. Elev Updated Type
                   

Watches & Warnings

There are currently no watches in effect.